Time;durP1;ratioP1;P1;durP2;ratioP2;P2;SDS_P1;SDS_P2;PMS_P1;PMS_P2;Temp;Humidity;BMP_temperature;BMP_pressure;BME280_temperature;BME280_humidity;BME280_pressure;Samples;Min_cycle;Max_cycle;Signal;HPM_P1;HPM_P2
2022/06/21 00:02:23;;;;;;;3.30;2.30;;;17.50;99.90;;;;;;5052381;28;20381;-75
2022/06/21 00:04:49;;;;;;;2.63;2.30;;;17.40;99.90;;;;;;5052431;28;20025;-75
2022/06/21 00:07:23;;;;;;;5.30;2.50;;;17.30;99.90;;;;;;5051922;28;20079;-75
2022/06/21 00:09:49;;;;;;;3.95;2.33;;;17.20;99.90;;;;;;5052073;28;20478;-75
2022/06/21 00:12:15;;;;;;;3.53;2.20;;;17.10;99.90;;;;;;5052405;28;20043;-75
2022/06/21 00:14:42;;;;;;;5.53;1.90;;;17.00;99.90;;;;;;5052120;28;20021;-75
2022/06/21 00:17:17;;;;;;;5.13;2.10;;;17.00;99.90;;;;;;5038584;28;20143;-75
2022/06/21 00:19:43;;;;;;;3.53;2.20;;;16.90;99.90;;;;;;5046286;28;20381;-75
2022/06/21 00:22:18;;;;;;;4.70;2.55;;;16.80;99.90;;;;;;5041316;28;20036;-75
2022/06/21 00:24:43;;;;;;;4.45;2.92;;;16.70;99.90;;;;;;5048814;28;20547;-75
2022/06/21 00:27:18;;;;;;;3.65;2.35;;;16.60;99.90;;;;;;5034348;28;20032;-75
2022/06/21 00:29:44;;;;;;;4.82;3.40;;;16.50;99.90;;;;;;5046383;28;20083;-75
2022/06/21 00:32:20;;;;;;;6.63;2.60;;;16.40;99.90;;;;;;5034354;28;20386;-75
2022/06/21 00:34:47;;;;;;;5.53;2.88;;;16.40;99.90;;;;;;5034163;28;20099;-75
2022/06/21 00:37:23;;;;;;;3.33;2.65;;;16.30;99.90;;;;;;5034554;28;20032;-75
2022/06/21 00:39:51;;;;;;;2.83;2.17;;;16.20;99.90;;;;;;5052519;28;20516;-75
2022/06/21 00:42:30;;;;;;;4.25;1.80;;;16.10;99.90;;;;;;5034139;28;20047;-76
2022/06/21 00:45:10;;;;;;;5.35;2.03;;;16.10;99.90;;;;;;5044085;28;20036;-76
2022/06/21 00:47:43;;;;;;;5.43;2.20;;;16.00;99.90;;;;;;5053060;28;20485;-76
2022/06/21 00:50:37;;;;;;;2.38;1.80;;;16.00;99.90;;;;;;5050606;28;20881;-77
2022/06/21 00:53:06;;;;;;;3.58;1.83;;;16.00;99.90;;;;;;5051367;28;20021;-77
2022/06/21 00:55:45;;;;;;;4.63;2.20;;;16.00;99.90;;;;;;5051986;28;20017;-77
2022/06/21 00:58:13;;;;;;;4.20;1.77;;;15.90;99.90;;;;;;5037740;28;20377;-77
2022/06/21 01:00:45;;;;;;;2.58;1.73;;;15.90;99.90;;;;;;5051531;28;20028;-77
2022/06/21 01:03:26;;;;;;;3.55;1.88;;;15.90;99.90;;;;;;5051815;28;20021;-77
2022/06/21 01:05:53;;;;;;;2.85;1.73;;;15.80;99.90;;;;;;5050873;28;20025;-77
2022/06/21 01:08:24;;;;;;;3.97;2.13;;;15.80;99.90;;;;;;5050545;28;20021;-77
2022/06/21 01:10:54;;;;;;;3.90;1.90;;;15.80;99.90;;;;;;5050013;28;20084;-77
2022/06/21 01:13:26;;;;;;;2.05;1.80;;;15.70;99.90;;;;;;5046610;28;20803;-77
2022/06/21 01:15:53;;;;;;;3.20;1.70;;;15.70;99.90;;;;;;5051143;28;20501;-77
2022/06/21 01:18:21;;;;;;;3.75;1.77;;;15.70;99.90;;;;;;5045975;28;20499;-77
2022/06/21 01:20:51;;;;;;;4.97;1.90;;;15.70;99.90;;;;;;5049569;28;20101;-77
2022/06/21 01:23:50;;;;;;;3.63;1.60;;;15.60;99.90;;;;;;5048643;28;20107;-77
2022/06/21 01:26:31;;;;;;;5.30;1.65;;;15.60;99.90;;;;;;5051368;28;20017;-77
2022/06/21 01:28:58;;;;;;;3.42;1.80;;;15.60;99.90;;;;;;5051045;28;20102;-77
2022/06/21 01:31:24;;;;;;;2.13;1.60;;;15.50;99.90;;;;;;5051001;28;20020;-77
2022/06/21 01:33:49;;;;;;;5.63;1.88;;;15.50;99.90;;;;;;5051178;28;20103;-77
2022/06/21 01:36:24;;;;;;;4.60;1.60;;;15.50;99.90;;;;;;5048018;28;20056;-77
2022/06/21 01:38:50;;;;;;;;;;;15.50;99.90;;;;;;5050129;28;20111;-77
2022/06/21 01:41:23;;;;;;;4.32;1.75;;;15.50;99.90;;;;;;5050413;28;19987;-77
2022/06/21 01:43:52;;;;;;;3.70;1.70;;;15.50;99.90;;;;;;5050770;28;20820;-77
2022/06/21 01:46:23;;;;;;;4.40;1.77;;;15.50;99.90;;;;;;5050932;28;20029;-77
2022/06/21 01:48:51;;;;;;;3.38;2.00;;;15.40;99.90;;;;;;5050668;28;20029;-77
2022/06/21 01:51:28;;;;;;;4.47;1.80;;;15.40;99.90;;;;;;5026273;28;20053;-77
2022/06/21 01:53:55;;;;;;;5.15;1.63;;;15.40;99.90;;;;;;5044991;28;20071;-77
2022/06/21 01:56:26;;;;;;;3.42;1.88;;;15.40;99.90;;;;;;5050576;28;20029;-77
2022/06/21 01:59:18;;;;;;;2.78;1.55;;;15.40;99.90;;;;;;5043930;28;20025;-77
2022/06/21 02:02:02;;;;;;;3.50;1.67;;;15.40;99.90;;;;;;5039795;28;20025;-77
2022/06/21 02:04:33;;;;;;;4.65;1.70;;;15.40;99.90;;;;;;5047831;28;20030;-77
2022/06/21 02:07:03;;;;;;;3.33;1.65;;;15.40;99.90;;;;;;5038501;28;20563;-77
2022/06/21 02:09:48;;;;;;;3.08;1.58;;;15.40;99.90;;;;;;5046735;28;20120;-77
2022/06/21 02:12:14;;;;;;;2.13;1.60;;;15.40;99.90;;;;;;5050922;28;20028;-77
2022/06/21 02:14:45;;;;;;;2.60;1.90;;;15.40;99.90;;;;;;5050147;28;20033;-77
2022/06/21 02:17:26;;;;;;;4.60;1.92;;;15.30;99.90;;;;;;5044600;28;20067;-77
2022/06/21 02:20:01;;;;;;;4.20;1.60;;;15.30;99.90;;;;;;5050523;28;20036;-77
2022/06/21 02:22:30;;;;;;;3.85;1.83;;;15.30;99.90;;;;;;5050857;28;20041;-77
2022/06/21 02:24:56;;;;;;;4.05;1.77;;;15.20;99.90;;;;;;5050297;28;20028;-77
2022/06/21 02:27:25;;;;;;;5.53;1.88;;;15.20;99.90;;;;;;5048665;28;20067;-77
2022/06/21 02:29:53;;;;;;;2.90;1.80;;;15.20;99.90;;;;;;5036091;28;20039;-77
2022/06/21 02:32:29;;;;;;;3.97;1.83;;;15.10;99.90;;;;;;5050476;28;20027;-77
2022/06/21 02:35:23;;;;;;;2.63;1.27;;;15.10;99.90;;;;;;5050233;28;20020;-77
2022/06/21 02:37:57;;;;;;;2.90;1.27;;;15.00;99.90;;;;;;5049946;28;20044;-77
2022/06/21 02:40:30;;;;;;;3.20;1.40;;;15.00;99.90;;;;;;5050474;28;20079;-77
2022/06/21 02:43:01;;;;;;;5.88;1.10;;;14.90;99.90;;;;;;5050185;28;20099;-77
2022/06/21 02:45:46;;;;;;;3.42;1.25;;;14.80;99.90;;;;;;5048065;28;20033;-76
2022/06/21 02:48:17;;;;;;;3.15;1.25;;;14.80;99.90;;;;;;5050145;28;20029;-77
2022/06/21 02:50:48;;;;;;;5.60;1.23;;;14.70;99.90;;;;;;5032555;28;20021;-77
2022/06/21 02:53:33;;;;;;;2.47;1.30;;;14.70;99.90;;;;;;5050268;28;20053;-77
2022/06/21 02:56:20;;;;;;;1.27;1.10;;;14.70;99.90;;;;;;5050541;28;20017;-77
2022/06/21 02:58:49;;;;;;;1.98;1.20;;;14.60;99.90;;;;;;5049417;28;20118;-77
2022/06/21 03:01:45;;;;;;;5.07;1.17;;;14.60;99.90;;;;;;5053561;28;20108;-77
2022/06/21 03:04:26;;;;;;;3.30;1.20;;;14.50;99.90;;;;;;5043323;28;20394;-77
2022/06/21 03:06:52;;;;;;;2.50;1.17;;;14.50;99.90;;;;;;5045080;28;20351;-77
2022/06/21 03:09:21;;;;;;;3.35;1.08;;;14.40;99.90;;;;;;5052486;28;20024;-77
2022/06/21 03:11:51;;;;;;;3.03;1.00;;;14.40;99.90;;;;;;5056191;28;20377;-77
2022/06/21 03:14:23;;;;;;;2.88;1.10;;;14.50;99.90;;;;;;5056258;28;20024;-77
2022/06/21 03:16:50;;;;;;;3.47;1.10;;;14.50;99.90;;;;;;5047906;28;20021;-77
2022/06/21 03:19:29;;;;;;;3.63;1.00;;;14.40;99.90;;;;;;5048279;28;20462;-77
2022/06/21 03:21:55;;;;;;;3.97;1.23;;;14.50;99.90;;;;;;5056001;28;20021;-77
2022/06/21 03:24:24;;;;;;;2.50;1.10;;;14.40;99.90;;;;;;5056410;28;20484;-77
2022/06/21 03:26:59;;;;;;;2.47;1.05;;;14.40;99.90;;;;;;5035791;28;20071;-77
2022/06/21 03:29:25;;;;;;;;;;;14.40;99.90;;;;;;5043098;28;20033;-77
2022/06/21 03:31:53;;;;;;;2.35;1.42;;;14.50;99.90;;;;;;5049651;28;19963;-77
2022/06/21 03:34:22;;;;;;;3.97;1.33;;;14.40;99.90;;;;;;5048704;28;20057;-78
2022/06/21 03:36:49;;;;;;;1.58;1.00;;;14.40;99.90;;;;;;5051026;28;20075;-78
2022/06/21 03:41:42;;;;;;;2.55;1.20;;;14.40;99.90;;;;;;5054869;28;20036;-78
2022/06/21 03:42:13;;;;;;;3.70;1.38;;;14.40;99.90;;;;;;5054464;28;20422;-78
2022/06/21 03:44:44;;;;;;;4.10;1.40;;;14.40;99.90;;;;;;5054778;28;20469;-78
2022/06/21 03:47:32;;;;;;;3.35;1.35;;;14.40;99.90;;;;;;5036701;28;20029;-78
2022/06/21 03:50:04;;;;;;;4.82;1.80;;;14.40;99.90;;;;;;5066704;28;20024;-77
2022/06/21 03:52:56;;;;;;;2.78;1.10;;;14.40;99.90;;;;;;5053285;28;20059;-77
2022/06/21 03:55:41;;;;;;;2.95;1.15;;;14.40;99.90;;;;;;5054303;28;20029;-77
2022/06/21 03:58:22;;;;;;;2.50;1.20;;;14.40;99.90;;;;;;5054292;28;20033;-77
2022/06/21 04:00:55;;;;;;;4.55;1.40;;;14.40;99.90;;;;;;5054573;28;20023;-78
2022/06/21 04:03:45;;;;;;;2.38;1.52;;;14.40;99.90;;;;;;5036454;28;20422;-78
2022/06/21 04:06:19;;;;;;;2.80;1.30;;;14.40;99.90;;;;;;5056292;28;20119;-78
2022/06/21 04:09:09;;;;;;;3.92;1.30;;;14.40;99.90;;;;;;5051903;28;20036;-71
2022/06/21 04:12:08;;;;;;;5.13;1.27;;;14.50;99.90;;;;;;5057112;28;20098;-72
2022/06/21 04:14:54;;;;;;;2.53;1.10;;;14.50;99.90;;;;;;5055804;28;20032;-71
2022/06/21 04:17:20;;;;;;;2.25;1.30;;;14.40;99.90;;;;;;5056780;28;20355;-71
2022/06/21 04:20:03;;;;;;;1.52;1.05;;;14.50;99.90;;;;;;5065881;28;20083;-72
2022/06/21 04:22:36;;;;;;;3.75;1.15;;;14.50;99.90;;;;;;5054963;28;20029;-71
2022/06/21 04:25:10;;;;;;;2.35;1.40;;;14.60;99.90;;;;;;5055099;28;20055;-71
2022/06/21 04:27:50;;;;;;;2.45;1.33;;;14.50;99.90;;;;;;5054874;28;20365;-71
2022/06/21 04:30:26;;;;;;;1.90;1.20;;;14.60;99.90;;;;;;5049110;28;20053;-71
2022/06/21 04:33:15;;;;;;;3.70;1.60;;;14.50;99.90;;;;;;5036261;28;20352;-70
2022/06/21 04:35:50;;;;;;;2.20;1.35;;;14.60;99.90;;;;;;5053238;28;20042;-83
2022/06/21 04:38:42;;;;;;;3.00;1.60;;;14.50;99.90;;;;;;5035908;28;20037;-71
2022/06/21 04:41:28;;;;;;;2.75;1.20;;;14.50;99.90;;;;;;5053548;28;20021;-71
2022/06/21 04:44:04;;;;;;;3.00;1.27;;;14.60;99.90;;;;;;5050557;28;20029;-71
2022/06/21 04:46:46;;;;;;;3.10;1.30;;;14.50;99.90;;;;;;5021167;28;20025;-71
2022/06/21 04:49:50;;;;;;;5.70;2.00;;;14.60;99.90;;;;;;5051872;28;20021;-71
2022/06/21 04:52:37;;;;;;;2.05;1.20;;;14.60;99.90;;;;;;5055685;28;20529;-73
2022/06/21 04:55:05;;;;;;;4.57;1.25;;;14.70;99.90;;;;;;5058018;28;20041;-74
2022/06/21 04:57:32;;;;;;;5.80;1.15;;;14.80;99.90;;;;;;5067047;28;20017;-71
2022/06/21 05:00:02;;;;;;;4.18;1.63;;;14.80;99.90;;;;;;5063829;28;20020;-73
2022/06/21 05:02:30;;;;;;;3.67;1.60;;;14.80;99.90;;;;;;5059660;28;20040;-71
2022/06/21 05:05:16;;;;;;;3.28;2.00;;;14.90;99.90;;;;;;5060026;28;20025;-71
2022/06/21 05:08:01;;;;;;;4.38;1.30;;;14.90;99.90;;;;;;5058415;28;20028;-70
2022/06/21 05:10:36;;;;;;;4.30;1.80;;;14.90;99.90;;;;;;5051423;28;20520;-71
2022/06/21 05:13:06;;;;;;;2.78;1.40;;;14.90;99.90;;;;;;5061294;28;20029;-71
2022/06/21 05:15:35;;;;;;;5.72;1.50;;;14.80;99.90;;;;;;5060065;28;20024;-71
2022/06/21 05:18:11;;;;;;;3.25;1.63;;;14.90;99.90;;;;;;5050512;28;20033;-71
2022/06/21 05:20:41;;;;;;;4.38;1.95;;;15.00;99.90;;;;;;5049656;28;20021;-71
2022/06/21 05:23:10;;;;;;;7.53;2.15;;;15.00;99.90;;;;;;5050306;28;20025;-71
2022/06/21 05:25:39;;;;;;;4.63;1.60;;;15.00;99.90;;;;;;5050251;28;20098;-71
2022/06/21 05:28:21;;;;;;;6.30;1.40;;;15.00;99.90;;;;;;5050492;28;20029;-71
2022/06/21 05:30:54;;;;;;;6.05;1.83;;;15.10;99.90;;;;;;5032185;28;20428;-71
2022/06/21 05:33:26;;;;;;;8.10;1.52;;;15.10;99.90;;;;;;5050990;28;20032;-71
2022/06/21 05:35:52;;;;;;;6.82;1.63;;;15.20;99.90;;;;;;5050239;28;20362;-71
2022/06/21 05:38:24;;;;;;;8.52;1.65;;;15.20;99.90;;;;;;5050609;28;20021;-71
2022/06/21 05:41:02;;;;;;;3.83;1.60;;;15.30;99.90;;;;;;5050061;28;20013;-69
2022/06/21 05:43:35;;;;;;;3.10;1.50;;;15.30;99.90;;;;;;5053324;28;20088;-69
2022/06/21 05:46:03;;;;;;;3.92;1.63;;;15.40;99.90;;;;;;5051855;28;20021;-69
2022/06/21 05:48:33;;;;;;;7.07;1.80;;;15.40;99.90;;;;;;5039144;28;20049;-69
2022/06/21 05:51:01;;;;;;;3.15;1.38;;;15.40;99.90;;;;;;5043609;28;20373;-69
2022/06/21 05:53:32;;;;;;;3.13;1.48;;;15.40;99.90;;;;;;5063852;28;20385;-70
2022/06/21 05:56:03;;;;;;;4.55;1.95;;;15.50;99.90;;;;;;5059631;28;20024;-70
2022/06/21 05:58:32;;;;;;;6.95;1.65;;;15.60;99.90;;;;;;5041428;28;20147;-70
2022/06/21 06:01:07;;;;;;;4.22;1.90;;;15.70;99.90;;;;;;5060080;28;20021;-70
2022/06/21 06:03:39;;;;;;;4.38;1.73;;;15.70;99.90;;;;;;5054672;28;20029;-69
2022/06/21 06:06:08;;;;;;;6.07;1.90;;;15.80;99.90;;;;;;5036702;28;20025;-69
2022/06/21 06:08:39;;;;;;;8.50;1.50;;;15.70;99.90;;;;;;5054546;28;20102;-70
2022/06/21 06:11:12;;;;;;;6.57;1.85;;;15.80;99.90;;;;;;5046764;28;20052;-70
2022/06/21 06:13:40;;;;;;;6.47;1.60;;;15.80;99.90;;;;;;5059737;28;20346;-69
2022/06/21 06:16:24;;;;;;;5.10;1.50;;;15.90;99.90;;;;;;5033646;28;20035;-72
2022/06/21 06:19:09;;;;;;;6.75;1.65;;;16.00;99.90;;;;;;5049145;28;20024;-72
2022/06/21 06:21:50;;;;;;;5.95;1.80;;;16.10;99.90;;;;;;5045719;28;20048;-72
2022/06/21 06:24:25;;;;;;;7.13;2.20;;;16.20;99.90;;;;;;5049576;28;20043;-72
2022/06/21 06:26:55;;;;;;;3.72;1.90;;;16.20;99.90;;;;;;5049795;28;20025;-72
2022/06/21 06:29:38;;;;;;;5.45;1.60;;;16.30;99.90;;;;;;5049598;28;20123;-72
2022/06/21 06:32:32;;;;;;;4.55;1.58;;;16.40;99.90;;;;;;5049719;28;20120;-72
2022/06/21 06:34:58;;;;;;;5.70;1.92;;;16.50;99.90;;;;;;5046863;28;20044;-72
2022/06/21 06:37:31;;;;;;;4.75;1.90;;;16.60;99.90;;;;;;5026615;28;20026;-71
2022/06/21 06:39:59;;;;;;;6.78;2.05;;;16.70;99.90;;;;;;5043886;28;20041;-72
2022/06/21 06:42:31;;;;;;;8.93;2.00;;;16.80;99.90;;;;;;5046548;28;20033;-72
2022/06/21 06:45:03;;;;;;;4.28;1.70;;;16.90;99.90;;;;;;5045218;28;20381;-72
2022/06/21 06:47:36;;;;;;;8.35;1.77;;;16.90;99.90;;;;;;5047016;28;20025;-72
2022/06/21 06:50:13;;;;;;;4.70;1.80;;;16.90;99.90;;;;;;5044163;28;20029;-72
2022/06/21 06:52:50;;;;;;;2.88;1.63;;;16.90;99.90;;;;;;5038897;28;20029;-72
2022/06/21 06:55:29;;;;;;;7.65;1.70;;;16.80;99.90;;;;;;5049571;28;20025;-72
2022/06/21 06:58:10;;;;;;;6.60;1.77;;;16.90;99.90;;;;;;5047288;28;20033;-79
2022/06/21 07:00:42;;;;;;;4.70;1.90;;;16.90;99.90;;;;;;5049923;28;20124;-78
2022/06/21 07:03:21;;;;;;;3.33;1.33;;;16.90;99.90;;;;;;5064294;28;20036;-80
2022/06/21 07:06:25;;;;;;;3.70;1.38;;;17.00;99.90;;;;;;5041571;28;20029;-80
2022/06/21 07:09:11;;;;;;;6.18;1.50;;;17.10;99.90;;;;;;4987752;28;20101;-79
2022/06/21 07:11:39;;;;;;;;;;;17.10;99.90;;;;;;5034960;28;20053;-80
2022/06/21 07:14:32;;;;;;;5.63;1.77;;;17.10;99.90;;;;;;5054881;28;19935;-80
2022/06/21 07:17:21;;;;;;;5.78;1.63;;;17.20;99.90;;;;;;5034542;28;20021;-80
2022/06/21 07:19:46;;;;;;;11.13;1.95;;;17.20;99.90;;;;;;5041161;28;20103;-80
2022/06/21 07:22:21;;;;;;;4.95;1.48;;;17.30;99.90;;;;;;5055050;28;20057;-80
2022/06/21 07:25:02;;;;;;;10.43;1.90;;;17.30;99.90;;;;;;5059832;28;20024;-80
2022/06/21 07:27:30;;;;;;;8.45;1.80;;;17.40;99.90;;;;;;5062250;28;20028;-80
2022/06/21 07:30:08;;;;;;;4.20;1.60;;;17.60;99.90;;;;;;5054952;28;20028;-80
2022/06/21 07:32:42;;;;;;;6.93;1.67;;;17.60;99.90;;;;;;5053830;28;20524;-80
2022/06/21 07:35:15;;;;;;;5.00;2.03;;;17.70;99.90;;;;;;5039480;28;20481;-80
2022/06/21 07:37:54;;;;;;;7.32;2.00;;;17.80;99.90;;;;;;5035719;28;20025;-80
2022/06/21 07:40:34;;;;;;;5.88;1.77;;;17.80;99.90;;;;;;5052439;28;20056;-79
2022/06/21 07:43:09;;;;;;;8.13;1.80;;;17.80;99.90;;;;;;5055610;28;20108;-80
2022/06/21 07:45:43;;;;;;;7.22;2.00;;;18.00;99.90;;;;;;5054481;28;20029;-80
2022/06/21 07:48:33;;;;;;;8.20;2.03;;;18.00;99.90;;;;;;5037132;28;20036;-80
2022/06/21 07:51:51;;;;;;;7.20;1.58;;;18.10;99.90;;;;;;5041257;28;20025;-80
2022/06/21 07:54:42;;;;;;;7.55;1.70;;;18.30;99.90;;;;;;5020842;28;20430;-80
2022/06/21 07:57:16;;;;;;;7.15;2.15;;;18.40;99.90;;;;;;5053536;28;20032;-80
2022/06/21 08:00:05;;;;;;;8.60;1.95;;;18.40;99.90;;;;;;5041895;28;20021;-78
2022/06/21 08:08:29;;;;;;;6.47;1.95;;;18.80;99.90;;;;;;5054401;28;20059;-80
2022/06/21 08:11:07;;;;;;;5.22;1.83;;;18.90;99.90;;;;;;5054126;28;20049;-80
2022/06/21 08:13:32;;;;;;;5.55;1.77;;;19.00;99.90;;;;;;5044363;28;20041;-80
2022/06/21 08:16:23;;;;;;;7.53;2.20;;;19.00;99.90;;;;;;5066592;28;20028;-80
2022/06/21 08:19:09;;;;;;;5.30;2.05;;;19.00;99.90;;;;;;5051235;28;20128;-79
2022/06/21 08:21:48;;;;;;;7.00;1.90;;;19.00;99.90;;;;;;5041223;28;20465;-79
2022/06/21 08:24:23;;;;;;;8.32;2.00;;;19.20;99.90;;;;;;5050676;28;20029;-79
2022/06/21 08:26:59;;;;;;;8.85;2.50;;;19.20;99.90;;;;;;5054562;28;20056;-79
2022/06/21 08:29:35;;;;;;;5.55;2.00;;;19.20;99.90;;;;;;5067490;28;20030;-83
2022/06/21 08:32:06;;;;;;;8.38;2.50;;;19.30;99.90;;;;;;5034828;28;20448;-78
2022/06/21 08:34:49;;;;;;;7.45;2.10;;;19.30;99.90;;;;;;5034453;28;20533;-78
2022/06/21 08:37:27;;;;;;;14.15;2.38;;;19.40;99.90;;;;;;5052911;28;20025;-79
2022/06/21 08:40:02;;;;;;;5.57;2.03;;;19.50;99.90;;;;;;5052377;28;20471;-78
2022/06/21 08:43:05;;;;;;;8.52;1.75;;;19.70;99.90;;;;;;5052462;28;20033;-78
2022/06/21 08:45:56;;;;;;;8.85;2.05;;;19.90;99.90;;;;;;5052840;28;20017;-80
2022/06/21 08:48:43;;;;;;;12.02;2.38;;;20.10;99.90;;;;;;5028895;28;20037;-80
2022/06/21 08:51:22;;;;;;;5.60;2.00;;;20.30;99.90;;;;;;5051732;28;20024;-79
2022/06/21 08:54:15;;;;;;;5.70;1.90;;;20.40;99.90;;;;;;5052282;28;20089;-77
2022/06/21 08:56:55;;;;;;;8.80;2.47;;;20.50;99.90;;;;;;5043057;28;20017;-77
2022/06/21 08:59:47;;;;;;;7.07;2.38;;;20.60;99.90;;;;;;5052145;28;20029;-77
2022/06/21 09:02:29;;;;;;;8.77;2.28;;;20.60;99.90;;;;;;5052928;28;20021;-79
2022/06/21 09:05:03;;;;;;;7.70;2.08;;;20.40;99.90;;;;;;5034744;28;20437;-79
2022/06/21 09:07:32;;;;;;;8.40;2.40;;;20.30;99.90;;;;;;5048380;28;20017;-78
2022/06/21 09:10:13;;;;;;;4.45;2.10;;;20.40;99.90;;;;;;5054461;28;20106;-78
2022/06/21 09:12:57;;;;;;;5.68;2.20;;;20.50;99.90;;;;;;5061310;28;20025;-79
2022/06/21 09:15:38;;;;;;;7.18;2.08;;;20.80;99.90;;;;;;5056836;28;20013;-79
2022/06/21 09:18:14;;;;;;;5.85;2.40;;;21.10;99.90;;;;;;5051886;28;20057;-79
2022/06/21 09:20:51;;;;;;;4.18;1.88;;;21.20;99.90;;;;;;5043173;28;20036;-78
2022/06/21 09:23:45;;;;;;;9.68;2.13;;;21.10;99.90;;;;;;5055859;28;20017;-79
2022/06/21 09:26:24;;;;;;;5.70;3.20;;;21.10;99.90;;;;;;5033508;28;20533;-79
2022/06/21 09:29:09;;;;;;;7.40;2.20;;;20.80;99.90;;;;;;5049309;28;20478;-79
2022/06/21 09:32:02;;;;;;;6.65;2.15;;;20.80;99.90;;;;;;5057297;28;20020;-79
2022/06/21 09:34:39;;;;;;;5.80;2.35;;;21.00;99.90;;;;;;5051437;28;20514;-79
2022/06/21 09:37:20;;;;;;;4.68;2.25;;;21.10;99.90;;;;;;5054911;28;20029;-79
2022/06/21 09:40:01;;;;;;;6.43;2.55;;;21.20;99.90;;;;;;5052880;28;20027;-78
2022/06/21 09:42:44;;;;;;;6.55;2.58;;;21.30;99.90;;;;;;5057357;28;20104;-79
2022/06/21 09:45:26;;;;;;;5.50;2.60;;;21.40;99.90;;;;;;5057150;28;20029;-78
2022/06/21 09:48:03;;;;;;;6.03;2.70;;;21.50;99.90;;;;;;5056357;28;20048;-79
2022/06/21 09:50:40;;;;;;;8.57;2.90;;;21.50;99.90;;;;;;5041943;28;20024;-79
2022/06/21 09:53:13;;;;;;;8.57;3.20;;;21.40;99.90;;;;;;5058592;28;20020;-78
2022/06/21 09:56:00;;;;;;;7.85;3.00;;;21.30;99.90;;;;;;5058009;28;20100;-79
2022/06/21 09:58:32;;;;;;;7.22;2.97;;;21.00;99.90;;;;;;5058230;28;20021;-79
2022/06/21 10:01:10;;;;;;;9.77;3.45;;;20.90;99.90;;;;;;5035113;28;20366;-79
2022/06/21 10:03:43;;;;;;;7.53;2.92;;;20.70;99.90;;;;;;5034715;28;20406;-71
2022/06/21 10:06:19;;;;;;;7.90;3.25;;;20.70;99.90;;;;;;5051132;28;20045;-71
2022/06/21 10:09:03;;;;;;;6.75;2.90;;;21.00;99.90;;;;;;5053445;28;20067;-72
2022/06/21 10:11:54;;;;;;;5.85;2.97;;;21.20;99.90;;;;;;5055022;28;20537;-72
2022/06/21 10:14:27;;;;;;;8.63;2.60;;;21.70;99.90;;;;;;5056025;28;20021;-72
2022/06/21 10:17:14;;;;;;;6.47;3.28;;;21.90;99.90;;;;;;5052132;28;20431;-71
2022/06/21 10:19:52;;;;;;;7.35;2.92;;;21.90;99.90;;;;;;5053455;28;20063;-72
2022/06/21 10:22:23;;;;;;;7.88;3.30;;;22.00;99.90;;;;;;5054994;28;20028;-71
2022/06/21 10:25:01;;;;;;;7.63;3.22;;;22.10;99.90;;;;;;5054416;28;20477;-71
2022/06/21 10:27:36;;;;;;;5.95;3.40;;;22.20;99.90;;;;;;5054652;28;20108;-74
2022/06/21 10:30:07;;;;;;;7.68;3.17;;;22.30;99.90;;;;;;5054401;28;20072;-71
2022/06/21 10:32:47;;;;;;;9.40;3.08;;;22.40;99.90;;;;;;5055700;28;20021;-78
2022/06/21 10:35:31;;;;;;;6.70;3.00;;;22.80;99.90;;;;;;5056904;28;20024;-78
2022/06/21 10:38:21;;;;;;;6.75;2.90;;;22.90;99.90;;;;;;5037471;28;20025;-78
2022/06/21 10:40:59;;;;;;;5.05;2.92;;;23.10;99.90;;;;;;5046870;28;20389;-76
2022/06/21 10:43:30;;;;;;;6.90;3.00;;;23.30;99.90;;;;;;5070132;28;20377;-77
2022/06/21 10:46:14;;;;;;;8.85;3.60;;;23.50;99.90;;;;;;5063292;28;20040;-77
2022/06/21 10:49:18;;;;;;;6.72;3.70;;;23.70;99.90;;;;;;5042662;28;20024;-77
2022/06/21 10:51:53;;;;;;;11.82;3.58;;;23.90;99.90;;;;;;5055798;28;20033;-78
2022/06/21 10:54:25;;;;;;;6.53;3.03;;;24.10;99.90;;;;;;5042164;28;20028;-77
2022/06/21 10:57:12;;;;;;;9.20;3.22;;;24.40;99.90;;;;;;5064503;28;20096;-77
2022/06/21 11:03:03;;;;;;;7.68;3.95;;;24.80;99.90;;;;;;5059320;28;20106;-77
2022/06/21 11:05:47;;;;;;;7.68;3.47;;;24.70;99.90;;;;;;5056897;28;20057;-77
2022/06/21 11:08:12;;;;;;;8.18;3.60;;;24.90;99.90;;;;;;5061276;28;20029;-77
2022/06/21 11:10:47;;;;;;;9.45;3.70;;;25.10;99.90;;;;;;5058676;28;20041;-77
2022/06/21 11:13:14;;;;;;;;;;;25.40;99.90;;;;;;5053925;28;20025;-77
2022/06/21 11:15:52;;;;;;;7.22;3.38;;;25.70;99.90;;;;;;5056450;28;19911;-77
2022/06/21 11:18:20;;;;;;;9.07;3.55;;;25.90;99.90;;;;;;5058745;28;20138;-77
2022/06/21 11:20:45;;;;;;;8.70;3.60;;;26.10;99.90;;;;;;5058620;28;20104;-77
2022/06/21 11:23:23;;;;;;;9.70;3.47;;;26.30;99.90;;;;;;5059826;28;20125;-77
2022/06/21 11:25:57;;;;;;;6.88;3.33;;;26.50;99.90;;;;;;5051055;28;20084;-77
2022/06/21 11:28:47;;;;;;;6.00;3.08;;;26.50;99.90;;;;;;5051015;28;20027;-77
2022/06/21 11:31:31;;;;;;;6.07;3.35;;;26.70;99.90;;;;;;5058842;28;20365;-77
2022/06/21 11:34:29;;;;;;;9.80;3.53;;;27.20;99.90;;;;;;5061676;28;20422;-76
2022/06/21 11:37:32;;;;;;;5.55;3.10;;;27.10;99.90;;;;;;5040818;28;20032;-76
2022/06/21 11:40:18;;;;;;;7.35;3.33;;;26.90;99.90;;;;;;5051910;28;20029;-77
2022/06/21 11:42:50;;;;;;;9.02;3.20;;;26.90;99.90;;;;;;5050568;28;20021;-76
2022/06/21 11:45:40;;;;;;;8.43;3.30;;;26.90;99.90;;;;;;5035119;28;20480;-77
2022/06/21 11:48:29;;;;;;;7.85;3.03;;;27.10;99.90;;;;;;5054520;28;20029;-77
2022/06/21 11:51:10;;;;;;;7.30;3.15;;;27.40;99.90;;;;;;5031944;28;20025;-77
2022/06/21 11:53:48;;;;;;;11.52;2.83;;;27.70;99.90;;;;;;5050670;28;20516;-77
2022/06/21 11:56:38;;;;;;;8.63;3.33;;;28.00;99.90;;;;;;5051699;28;20025;-76
2022/06/21 11:59:26;;;;;;;7.82;3.33;;;28.00;99.90;;;;;;5055270;28;20021;-77
2022/06/21 12:02:01;;;;;;;8.10;2.97;;;28.30;99.90;;;;;;5042626;28;20021;-77
2022/06/21 12:04:55;;;;;;;9.18;3.03;;;28.30;99.90;;;;;;5056923;28;20027;-77
2022/06/21 12:07:35;;;;;;;6.22;3.42;;;27.80;99.90;;;;;;5049525;28;20481;-76
2022/06/21 12:10:11;;;;;;;5.00;2.95;;;27.50;99.90;;;;;;5051591;28;20100;-76
2022/06/21 12:12:46;;;;;;;8.15;2.80;;;27.50;99.90;;;;;;5047867;28;20413;-76
2022/06/21 12:15:30;;;;;;;10.88;3.33;;;27.70;99.90;;;;;;5053448;28;20130;-77
2022/06/21 12:18:05;;;;;;;7.25;2.55;;;28.00;99.90;;;;;;5049563;28;20074;-76
2022/06/21 12:20:51;;;;;;;9.13;3.17;;;28.40;99.90;;;;;;5050999;28;20474;-77
2022/06/21 12:23:44;;;;;;;7.05;2.88;;;28.60;99.90;;;;;;5051325;28;20518;-76
2022/06/21 12:26:21;;;;;;;8.55;3.42;;;28.50;99.90;;;;;;5051014;28;20075;-76
2022/06/21 12:28:48;;;;;;;6.15;2.80;;;28.60;99.90;;;;;;5059599;28;20017;-77
2022/06/21 12:31:36;;;;;;;10.00;3.47;;;28.90;99.90;;;;;;5053868;28;20373;-77
2022/06/21 12:34:07;;;;;;;7.80;2.80;;;29.20;99.90;;;;;;5051203;28;20017;-76
2022/06/21 12:36:55;;;;;;;7.85;3.05;;;28.80;99.90;;;;;;5034839;28;20545;-77
2022/06/21 12:39:38;;;;;;;6.97;3.30;;;28.30;99.90;;;;;;5058048;28;20033;-76
2022/06/21 12:42:31;;;;;;;7.25;2.85;;;27.60;99.90;;;;;;5051201;28;20036;-76
2022/06/21 12:45:19;;;;;;;7.75;3.30;;;27.10;99.90;;;;;;5052593;28;20035;-76
2022/06/21 12:47:48;;;;;;;9.70;3.05;;;27.50;99.90;;;;;;5048782;28;20394;-76
2022/06/21 12:50:44;;;;;;;7.30;3.13;;;27.70;99.90;;;;;;5058400;28;20029;-76
2022/06/21 12:53:12;;;;;;;4.88;2.83;;;27.90;99.90;;;;;;5051091;28;20021;-76
2022/06/21 12:55:58;;;;;;;10.88;3.15;;;27.80;99.90;;;;;;5052514;28;20029;-76
2022/06/21 12:58:51;;;;;;;9.75;3.47;;;28.00;99.90;;;;;;5056738;28;20370;-77
2022/06/21 13:01:22;;;;;;;9.25;3.55;;;28.40;99.90;;;;;;5052121;28;20021;-76
2022/06/21 13:04:00;;;;;;;7.60;2.90;;;28.60;99.90;;;;;;5054163;28;20458;-76
2022/06/21 13:06:28;;;;;;;5.80;3.53;;;28.70;99.90;;;;;;5059002;28;20032;-76
2022/06/21 13:09:14;;;;;;;5.88;3.00;;;28.70;99.90;;;;;;5057123;28;20103;-76
2022/06/21 13:11:58;;;;;;;5.28;2.92;;;28.70;99.90;;;;;;4999459;28;20144;-77
2022/06/21 13:14:41;;;;;;;7.13;3.55;;;28.50;99.90;;;;;;5051293;28;20035;-72
2022/06/21 13:17:37;;;;;;;4.28;2.95;;;28.30;99.90;;;;;;5054739;28;20029;-76
2022/06/21 13:20:29;;;;;;;6.18;2.70;;;28.30;99.90;;;;;;5051537;28;20070;-77
2022/06/21 13:23:12;;;;;;;7.35;3.95;;;28.20;99.90;;;;;;5000587;28;20102;-76
2022/06/21 13:26:02;;;;;;;5.97;2.97;;;28.20;99.90;;;;;;5034639;28;20025;-76
2022/06/21 13:28:36;;;;;;;8.45;2.95;;;28.20;99.90;;;;;;5054863;28;20039;-76
2022/06/21 13:31:22;;;;;;;6.47;3.03;;;28.30;99.90;;;;;;5049070;28;20032;-76
2022/06/21 13:33:56;;;;;;;9.63;3.08;;;28.40;99.90;;;;;;5056501;28;20044;-76
2022/06/21 13:36:39;;;;;;;5.28;2.70;;;28.50;99.90;;;;;;5056043;28;20017;-77
2022/06/21 13:39:46;;;;;;;8.77;3.33;;;28.40;99.90;;;;;;5057555;28;20045;-76
2022/06/21 13:42:40;;;;;;;8.85;3.25;;;28.10;99.90;;;;;;5044956;28;20044;-77
2022/06/21 13:45:28;;;;;;;8.00;3.80;;;27.70;99.90;;;;;;5052729;28;20083;-77
2022/06/21 13:48:02;;;;;;;7.28;2.95;;;27.50;99.90;;;;;;5059026;28;20098;-76
2022/06/21 13:50:33;;;;;;;9.20;3.70;;;27.00;99.90;;;;;;5060109;28;20033;-76
2022/06/21 13:53:17;;;;;;;5.45;2.95;;;26.70;99.90;;;;;;5056341;28;20517;-76